Time;durP1;ratioP1;P1;durP2;ratioP2;P2;SDS_P1;SDS_P2;PMS_P1;PMS_P2;Temp;Humidity;BMP_temperature;BMP_pressure;BME280_temperature;BME280_humidity;BME280_pressure;Samples;Min_cycle;Max_cycle;Signal;HPM_P1;HPM_P2
2022/12/25 00:00:40;;;;;;;16.90;9.57;;;;;;;6.71;90.70;101183.75;5115386;28;20587;-68
2022/12/25 00:03:06;;;;;;;18.33;8.57;;;;;;;6.77;90.79;101179.94;5115032;28;20192;-68
2022/12/25 00:05:33;;;;;;;16.03;8.47;;;;;;;6.79;91.07;101188.72;5115153;28;20215;-67
2022/12/25 00:07:59;;;;;;;21.77;9.20;;;;;;;6.84;90.98;101185.81;5114976;28;20276;-67
2022/12/25 00:10:26;;;;;;;17.90;8.50;;;;;;;6.83;91.02;101190.28;5115042;28;20209;-67
2022/12/25 00:12:52;;;;;;;18.33;8.03;;;;;;;6.78;90.81;101195.84;5115949;28;20192;-67
2022/12/25 00:15:18;;;;;;;23.13;8.93;;;;;;;6.80;90.81;101182.47;5117129;28;20296;-68
2022/12/25 00:17:45;;;;;;;19.37;8.73;;;;;;;6.79;90.61;101186.03;5117623;28;20182;-67
2022/12/25 00:20:11;;;;;;;19.93;8.20;;;;;;;6.81;90.92;101185.03;5117642;28;20174;-67
2022/12/25 00:22:38;;;;;;;23.77;8.67;;;;;;;6.84;90.87;101188.47;5117997;28;20215;-67
2022/12/25 00:25:04;;;;;;;24.07;8.87;;;;;;;6.80;90.84;101182.47;5115984;28;20265;-67
2022/12/25 00:27:32;;;;;;;27.97;9.13;;;;;;;6.87;90.55;101183.88;5114841;28;20264;-67
2022/12/25 00:29:59;;;;;;;23.30;9.10;;;;;;;6.84;90.69;101181.34;5114498;28;20195;-67
2022/12/25 00:32:26;;;;;;;23.33;8.83;;;;;;;6.85;90.83;101174.22;5114692;28;20536;-67
2022/12/25 00:34:52;;;;;;;17.93;8.00;;;;;;;6.87;90.67;101175.91;5114382;28;20197;-67
2022/12/25 00:37:19;;;;;;;15.23;7.97;;;;;;;6.92;90.47;101176.53;5114286;28;20280;-68
2022/12/25 00:39:48;;;;;;;10.37;7.03;;;;;;;6.86;90.60;101175.97;5114890;28;20267;-68
2022/12/25 00:42:17;;;;;;;17.13;7.80;;;;;;;6.79;90.31;101167.41;5114720;28;20185;-68
2022/12/25 00:44:48;;;;;;;8.30;7.50;;;;;;;6.72;90.50;101166.84;5114133;28;20231;-68
2022/12/25 00:47:15;;;;;;;11.90;7.47;;;;;;;6.72;90.54;101163.31;5096078;28;20237;-68
2022/12/25 00:49:42;;;;;;;15.63;8.10;;;;;;;6.73;90.60;101167.72;5114044;28;20192;-68
2022/12/25 00:52:09;;;;;;;12.93;7.40;;;;;;;6.72;90.54;101168.66;5113982;28;20544;-68
2022/12/25 00:54:36;;;;;;;9.53;8.57;;;;;;;6.69;90.81;101163.47;5114019;28;20268;-68
2022/12/25 00:57:02;;;;;;;14.13;8.10;;;;;;;6.75;90.56;101176.47;5095945;28;20219;-67
2022/12/25 00:59:33;;;;;;;18.90;8.90;;;;;;;6.82;90.59;101170.78;5113979;28;20712;-67
2022/12/25 01:02:22;;;;;;;14.73;8.47;;;;;;;6.82;90.71;101170.78;5114199;28;20181;-67
2022/12/25 01:04:47;;;;;;;24.93;9.23;;;;;;;6.85;90.36;101174.22;5114120;28;20192;-67
2022/12/25 01:07:15;;;;;;;13.33;8.70;;;;;;;6.83;90.84;101174.31;5113873;28;20296;-66
2022/12/25 01:12:34;;;;;;;18.33;8.80;;;;;;;6.84;90.98;101168.03;5114150;28;20602;-66
2022/12/25 01:15:01;;;;;;;29.17;8.77;;;;;;;6.93;91.36;101151.63;5113990;28;20188;-67
2022/12/25 01:17:27;;;;;;;17.10;8.40;;;;;;;6.90;91.62;101161.56;5114018;28;20182;-66
2022/12/25 01:19:53;;;;;;;19.27;8.63;;;;;;;7.00;90.93;101165.50;5114259;28;20212;-66
2022/12/25 01:22:20;;;;;;;17.27;7.73;;;;;;;7.04;91.51;101164.41;5113639;28;20207;-67
2022/12/25 01:24:46;;;;;;;12.20;8.23;;;;;;;7.11;91.37;101155.19;5113638;28;20185;-66
2022/12/25 01:27:13;;;;;;;10.67;7.33;;;;;;;7.11;91.40;101156.94;5113608;28;20280;-67
2022/12/25 01:29:40;;;;;;;15.57;7.73;;;;;;;7.16;91.13;101157.56;5113621;28;20276;-66
2022/12/25 01:32:06;;;;;;;15.73;7.27;;;;;;;7.17;91.53;101151.31;5113493;28;20268;-66
2022/12/25 01:34:33;;;;;;;17.53;7.67;;;;;;;7.16;91.59;101154.91;5113591;28;20276;-66
2022/12/25 01:36:59;;;;;;;20.23;7.47;;;;;;;7.24;91.17;101158.91;5113616;28;20205;-66
2022/12/25 01:39:26;;;;;;;17.20;7.90;;;;;;;7.28;91.36;101156.97;5114134;28;20267;-66
2022/12/25 01:41:52;;;;;;;14.23;7.27;;;;;;;7.31;90.94;101147.97;5113521;28;20192;-66
2022/12/25 01:44:34;;;;;;;15.67;8.37;;;;;;;7.37;91.64;101145.81;5113819;28;20683;-67
2022/12/25 01:47:05;;;;;;;14.27;7.60;;;;;;;7.44;90.99;101143.72;5116980;28;20209;-67
2022/12/25 01:49:35;;;;;;;19.53;7.20;;;;;;;7.47;91.12;101135.56;5117618;28;20178;-67
2022/12/25 01:52:09;;;;;;;7.03;5.70;;;;;;;7.51;91.33;101139.78;5117549;28;20207;-67
2022/12/25 01:54:45;;;;;;;14.70;6.57;;;;;;;7.54;91.16;101144.09;5118131;28;20220;-67
2022/12/25 01:57:17;;;;;;;9.27;6.10;;;;;;;7.60;91.11;101133.97;5117971;28;20208;-67
2022/12/25 01:59:44;;;;;;;9.73;5.43;;;;;;;7.66;90.76;101144.31;5117721;28;20182;-67
2022/12/25 02:02:10;;;;;;;6.43;4.57;;;;;;;7.71;91.15;101149.41;5117387;28;20178;-67
2022/12/25 02:04:41;;;;;;;5.00;4.70;;;;;;;7.74;90.94;101161.72;5117302;28;20678;-67
2022/12/25 02:07:23;;;;;;;5.83;5.33;;;;;;;7.80;90.99;101158.69;5117510;28;20295;-67
2022/12/25 02:09:51;;;;;;;4.80;4.50;;;;;;;7.83;90.98;101162.09;5117519;28;20260;-67
2022/12/25 02:12:38;;;;;;;6.20;4.93;;;;;;;7.84;91.13;101161.13;5117026;28;20239;-67
2022/12/25 02:15:08;;;;;;;7.80;4.67;;;;;;;7.93;90.75;101162.44;5117469;27;20199;-67
2022/12/25 02:17:43;;;;;;;6.60;5.03;;;;;;;7.93;90.83;101167.78;5117660;28;20177;-67
2022/12/25 02:20:37;;;;;;;5.20;4.80;;;;;;;7.95;90.70;101167.69;5117160;28;20169;-67
2022/12/25 02:23:22;;;;;;;5.13;4.70;;;;;;;8.03;90.34;101173.47;5117260;28;20587;-67
2022/12/25 02:26:07;;;;;;;16.40;4.87;;;;;;;8.02;90.17;101171.75;5116998;28;20236;-68
2022/12/25 02:28:44;;;;;;;5.63;4.67;;;;;;;8.04;90.56;101164.53;5116838;28;20196;-68
2022/12/25 02:31:46;;;;;;;9.60;4.40;;;;;;;8.08;90.36;101182.94;5117043;28;20229;-68
2022/12/25 02:34:14;;;;;;;6.50;5.07;;;;;;;8.09;90.40;101173.13;5116942;28;20655;-68
2022/12/25 02:37:06;;;;;;;4.50;4.30;;;;;;;8.23;89.96;101180.38;5117141;28;20667;-68
2022/12/25 02:39:59;;;;;;;5.10;4.70;;;;;;;8.25;89.60;101173.16;5116974;28;20600;-68
2022/12/25 03:08:17;;;;;;;8.43;4.27;;;;;;;8.51;89.95;101175.28;5116662;28;20253;-68
2022/12/25 03:13:48;;;;;;;4.00;3.70;;;;;;;8.55;90.22;101177.78;5116359;28;20252;-68
2022/12/25 03:26:53;;;;;;;6.23;3.97;;;;;;;8.60;89.84;101173.91;5116150;28;20184;-68
2022/12/25 03:27:16;;;;;;;5.33;3.50;;;;;;;8.57;90.64;101165.19;5115681;28;20205;-68
2022/12/25 03:32:33;;;;;;;4.93;3.23;;;;;;;8.60;89.93;101151.69;5115596;28;20189;-68
2022/12/25 03:35:22;;;;;;;7.10;3.53;;;;;;;8.57;90.61;101149.19;5116083;28;20256;-69
2022/12/25 03:47:30;;;;;;;4.43;4.23;;;;;;;8.57;90.72;101135.84;5115271;28;20762;-68
2022/12/25 04:36:57;;;;;;;4.53;4.20;;;;;;;8.39;90.73;101093.19;5114401;28;20209;-69
2022/12/25 04:39:23;;;;;;;5.03;4.57;;;;;;;8.39;90.96;101098.53;5114348;28;20260;-69
2022/12/25 04:41:50;;;;;;;5.03;4.83;;;;;;;8.35;91.14;101098.78;5114277;28;20185;-69
2022/12/25 04:44:16;;;;;;;3.77;3.57;;;;;;;8.34;90.81;101108.63;5114514;28;20200;-69
2022/12/25 04:46:42;;;;;;;4.07;4.00;;;;;;;8.32;90.80;101115.84;5114147;28;20691;-69
2022/12/25 04:49:09;;;;;;;10.03;7.60;;;;;;;8.26;90.68;101117.06;5114150;28;20190;-69
2022/12/25 04:51:35;;;;;;;8.33;7.53;;;;;;;8.22;91.34;101110.16;5114312;28;20300;-69
2022/12/25 04:54:02;;;;;;;7.73;6.07;;;;;;;8.20;91.29;101105.88;5114672;28;20232;-69
2022/12/25 04:56:28;;;;;;;8.13;5.20;;;;;;;8.18;91.24;101097.94;5114364;28;20728;-69
2022/12/25 04:58:55;;;;;;;4.03;3.83;;;;;;;8.17;91.41;101085.56;5114022;28;20188;-68
2022/12/25 05:01:21;;;;;;;4.40;4.20;;;;;;;8.18;90.86;101087.25;5114546;28;20209;-68
2022/12/25 05:03:48;;;;;;;3.83;3.60;;;;;;;8.17;91.10;101093.56;5114000;28;20177;-68
2022/12/25 05:06:14;;;;;;;4.50;4.30;;;;;;;8.09;90.63;101083.31;5113839;28;20209;-68
2022/12/25 05:08:41;;;;;;;16.73;3.87;;;;;;;8.10;90.99;101087.69;5114421;28;20189;-68
2022/12/25 05:11:11;;;;;;;5.60;3.77;;;;;;;8.07;91.00;101089.69;5113789;28;20272;-68
2022/12/25 05:13:38;;;;;;;4.17;3.77;;;;;;;8.10;91.07;101084.19;5114082;28;20185;-68
2022/12/25 05:16:06;;;;;;;4.60;4.53;;;;;;;8.07;90.98;101095.03;5113976;28;20341;-68
2022/12/25 05:18:34;;;;;;;4.40;4.00;;;;;;;8.06;90.74;101093.28;5114270;28;20271;-68
2022/12/25 05:21:00;;;;;;;6.43;5.23;;;;;;;8.08;90.56;101094.91;5113539;28;20722;-68
2022/12/25 05:23:26;;;;;;;4.80;4.60;;;;;;;8.01;90.79;101082.88;5113710;28;20572;-68
2022/12/25 05:25:53;;;;;;;4.97;4.67;;;;;;;7.99;90.41;101081.25;5114038;28;20204;-69
2022/12/25 05:28:19;;;;;;;4.60;4.37;;;;;;;7.95;90.95;101080.56;5113962;28;20715;-69
2022/12/25 05:30:46;;;;;;;4.67;4.43;;;;;;;7.95;90.20;101085.00;5114174;28;20268;-68
2022/12/25 05:33:14;;;;;;;5.37;4.27;;;;;;;7.85;91.00;101085.53;5113608;28;20213;-68
2022/12/25 05:35:40;;;;;;;3.80;3.70;;;;;;;7.79;90.35;101082.34;5113602;28;20628;-68
2022/12/25 05:38:06;;;;;;;4.80;3.93;;;;;;;7.79;90.69;101080.53;5113585;28;20187;-68
2022/12/25 05:40:36;;;;;;;4.40;3.90;;;;;;;7.83;90.91;101074.09;5113877;28;20173;-68
2022/12/25 05:43:03;;;;;;;4.40;4.23;;;;;;;7.84;90.34;101072.28;5113864;28;20691;-68
2022/12/25 05:45:30;;;;;;;4.97;4.47;;;;;;;7.83;90.98;101074.09;5113488;28;20197;-68
2022/12/25 05:47:56;;;;;;;11.83;4.77;;;;;;;7.83;90.66;101073.25;5113788;28;20734;-68
2022/12/25 05:50:23;;;;;;;5.33;4.80;;;;;;;7.88;90.49;101076.50;5113429;28;20174;-68
2022/12/25 05:53:07;;;;;;;4.43;4.33;;;;;;;7.90;90.78;101069.25;5113694;28;20208;-68
2022/12/25 05:55:36;;;;;;;4.60;4.30;;;;;;;7.89;90.94;101065.75;5113622;28;20208;-68
2022/12/25 05:58:04;;;;;;;4.40;4.20;;;;;;;7.91;90.93;101065.66;5113429;28;20260;-68
2022/12/25 06:00:31;;;;;;;4.47;4.03;;;;;;;7.85;91.02;101058.88;5113699;28;20242;-68
2022/12/25 06:02:57;;;;;;;4.10;3.90;;;;;;;7.91;91.01;101063.00;5113922;28;20656;-68
2022/12/25 06:05:24;;;;;;;7.33;4.17;;;;;;;7.91;91.43;101065.66;5113743;28;20778;-68
2022/12/25 06:07:51;;;;;;;4.20;3.90;;;;;;;7.91;90.90;101065.66;5113597;28;20176;-69
2022/12/25 06:10:17;;;;;;;4.10;3.90;;;;;;;7.93;90.79;101069.13;5113326;28;20173;-68
2022/12/25 06:12:44;;;;;;;8.60;4.60;;;;;;;7.92;91.35;101063.84;5113786;28;20227;-68
2022/12/25 06:15:10;;;;;;;4.63;4.30;;;;;;;7.91;90.87;101051.47;5113240;28;20576;-69
2022/12/25 06:17:37;;;;;;;4.03;3.77;;;;;;;7.92;90.95;101042.53;5113801;28;20178;-69
2022/12/25 06:20:04;;;;;;;3.90;3.67;;;;;;;7.87;90.66;101038.28;5113721;28;20177;-68
2022/12/25 06:22:32;;;;;;;4.27;4.07;;;;;;;7.85;90.73;101042.88;5113483;28;20253;-68
2022/12/25 06:24:59;;;;;;;3.93;3.60;;;;;;;7.80;91.19;101038.72;5113373;28;20186;-69
2022/12/25 06:27:27;;;;;;;4.33;4.03;;;;;;;7.87;91.16;101037.44;5113410;28;20212;-68
2022/12/25 06:29:54;;;;;;;4.93;4.50;;;;;;;7.80;90.74;101036.06;5113111;28;20272;-68
2022/12/25 06:32:20;;;;;;;4.27;4.17;;;;;;;7.78;90.51;101037.94;5115071;28;20205;-68
2022/12/25 06:34:47;;;;;;;9.63;4.57;;;;;;;7.76;90.96;101037.19;5117023;28;20260;-69
2022/12/25 06:37:14;;;;;;;4.20;4.10;;;;;;;7.73;90.66;101034.66;5116904;28;20229;-68
2022/12/25 06:39:40;;;;;;;5.03;4.30;;;;;;;7.69;90.61;101023.34;5116963;28;20212;-68
2022/12/25 06:42:06;;;;;;;4.30;4.00;;;;;;;7.69;90.66;101030.47;5116933;28;20586;-68
2022/12/25 06:44:33;;;;;;;4.60;4.27;;;;;;;7.65;91.19;101019.97;5116816;28;20268;-68
2022/12/25 06:46:59;;;;;;;5.37;4.97;;;;;;;7.60;90.93;101013.16;5116492;28;20657;-69
2022/12/25 06:49:26;;;;;;;7.23;4.43;;;;;;;7.60;91.52;101015.84;5116474;28;20185;-69
2022/12/25 06:51:52;;;;;;;4.00;3.80;;;;;;;7.60;91.70;101011.38;5116919;28;20205;-68
2022/12/25 06:54:19;;;;;;;4.63;4.33;;;;;;;7.63;91.07;101007.66;5116397;28;20297;-68
2022/12/25 06:56:46;;;;;;;6.17;5.13;;;;;;;7.60;91.17;101014.03;5116313;28;20297;-68
2022/12/25 06:59:13;;;;;;;4.50;4.20;;;;;;;7.57;90.61;101008.88;5116558;28;20260;-68
2022/12/25 07:01:53;;;;;;;4.60;4.27;;;;;;;7.48;91.43;101005.84;5116238;28;20191;-68
2022/12/25 07:04:27;;;;;;;4.07;3.87;;;;;;;7.46;91.28;100992.59;5116224;28;20173;-68
2022/12/25 07:06:54;;;;;;;6.77;4.17;;;;;;;7.44;90.73;100999.81;5116212;28;20209;-68
2022/12/25 07:09:20;;;;;;;5.37;4.00;;;;;;;7.44;90.80;100997.16;5116375;28;20260;-68
2022/12/25 07:11:46;;;;;;;3.77;3.63;;;;;;;7.33;91.24;100992.41;5116244;28;20550;-68
2022/12/25 07:14:18;;;;;;;4.73;4.47;;;;;;;7.35;91.16;100985.22;5116039;28;20304;-68
2022/12/25 07:16:49;;;;;;;4.00;3.80;;;;;;;7.28;90.78;100982.94;5115984;28;20205;-68
2022/12/25 07:19:16;;;;;;;4.70;4.40;;;;;;;7.16;90.87;100974.69;5116196;28;20189;-68
2022/12/25 07:21:42;;;;;;;4.90;4.47;;;;;;;7.20;90.92;100967.38;5115731;28;20199;-68
2022/12/25 07:24:09;;;;;;;5.60;4.30;;;;;;;7.26;90.73;100958.22;5115793;28;20280;-68
2022/12/25 07:26:36;;;;;;;5.77;5.50;;;;;;;7.26;91.63;100955.53;5116035;28;20626;-68
2022/12/25 07:29:02;;;;;;;6.57;4.03;;;;;;;7.21;91.51;100956.66;5115699;28;20213;-68
2022/12/25 07:31:28;;;;;;;4.53;4.17;;;;;;;7.24;91.12;100947.63;5116245;28;20268;-68
2022/12/25 07:33:55;;;;;;;6.53;3.90;;;;;;;7.29;91.50;100953.56;5115604;28;20201;-68
2022/12/25 07:36:22;;;;;;;10.73;4.50;;;;;;;7.24;91.68;100951.13;5115528;28;20578;-68
2022/12/25 07:38:48;;;;;;;4.60;4.10;;;;;;;7.24;91.72;100953.81;5115809;28;20196;-68
2022/12/25 07:41:15;;;;;;;4.37;3.90;;;;;;;7.24;91.21;100951.13;5115499;28;20615;-68
2022/12/25 07:43:42;;;;;;;10.80;3.70;;;;;;;7.18;91.32;100956.81;5115393;28;20277;-68
2022/12/25 07:46:09;;;;;;;3.90;3.70;;;;;;;7.26;91.16;100966.19;5115267;28;20296;-69
2022/12/25 07:48:36;;;;;;;3.63;3.43;;;;;;;7.28;91.43;100965.16;5115932;28;20252;-68
2022/12/25 07:51:05;;;;;;;4.10;3.77;;;;;;;7.37;91.68;100966.44;5115853;28;20264;-68
2022/12/25 07:53:32;;;;;;;5.10;3.57;;;;;;;7.41;91.51;100962.69;5115161;28;20213;-68
2022/12/25 07:56:04;;;;;;;6.87;4.30;;;;;;;7.34;91.84;100950.66;5115123;28;20201;-68
2022/12/25 07:58:31;;;;;;;5.53;3.77;;;;;;;7.42;91.41;100937.75;5115177;28;20174;-68
2022/12/25 08:01:03;;;;;;;5.30;3.53;;;;;;;7.43;91.55;100937.69;5115380;28;20695;-69
2022/12/25 08:03:31;;;;;;;4.27;3.63;;;;;;;7.42;91.59;100943.06;5115645;28;20201;-69
2022/12/25 08:06:02;;;;;;;4.20;3.30;;;;;;;7.41;91.31;100936.91;5114897;28;20209;-69
2022/12/25 08:08:29;;;;;;;3.20;3.00;;;;;;;7.36;91.28;100938.09;5115549;28;20261;-69
2022/12/25 08:10:55;;;;;;;3.83;3.53;;;;;;;7.35;91.78;100923.03;5114867;28;20181;-69
2022/12/25 08:13:22;;;;;;;5.00;3.87;;;;;;;7.35;91.50;100920.38;5114797;28;20213;-69
2022/12/25 08:15:48;;;;;;;4.07;3.80;;;;;;;7.31;91.94;100925.03;5114740;28;20209;-69
2022/12/25 08:18:15;;;;;;;3.80;3.53;;;;;;;7.43;92.16;100936.81;5114725;28;20245;-69
2022/12/25 08:20:41;;;;;;;4.20;3.30;;;;;;;7.40;92.11;100942.31;5114758;28;20599;-69
2022/12/25 08:23:08;;;;;;;3.80;3.43;;;;;;;7.43;91.66;100964.31;5114683;28;20203;-69
2022/12/25 08:25:35;;;;;;;9.10;3.70;;;;;;;7.46;91.85;100958.81;5114772;28;20197;-69
2022/12/25 08:28:01;;;;;;;3.80;3.63;;;;;;;7.44;92.03;100952.69;5114673;28;20193;-69
2022/12/25 08:30:27;;;;;;;4.30;3.90;;;;;;;7.53;91.88;100950.50;5114498;28;20735;-69
2022/12/25 08:32:54;;;;;;;3.13;3.03;;;;;;;7.56;91.29;100975.16;5114435;28;20577;-69
2022/12/25 08:35:21;;;;;;;4.07;3.40;;;;;;;7.57;91.27;100981.38;5114948;28;20219;-69
2022/12/25 08:37:47;;;;;;;3.47;3.47;;;;;;;7.60;91.43;100975.84;5114423;28;20662;-68
2022/12/25 08:40:14;;;;;;;5.87;4.03;;;;;;;7.62;91.83;100965.97;5114616;28;20224;-68
2022/12/25 08:42:40;;;;;;;6.73;4.50;;;;;;;7.71;91.13;100948.59;5114309;28;20272;-68
2022/12/25 08:45:07;;;;;;;7.33;3.90;;;;;;;7.78;91.37;100939.28;5114171;28;20272;-69
2022/12/25 08:47:33;;;;;;;5.13;3.67;;;;;;;7.79;91.44;100938.38;5114792;28;20621;-69
2022/12/25 08:50:00;;;;;;;4.07;3.63;;;;;;;7.82;91.15;100946.19;5114462;28;20611;-69
2022/12/25 08:52:27;;;;;;;3.93;3.67;;;;;;;7.86;91.02;100971.75;5114365;28;20263;-69
2022/12/25 08:54:54;;;;;;;4.00;3.60;;;;;;;7.86;91.47;100971.75;5113906;28;20195;-69
2022/12/25 08:57:20;;;;;;;3.83;3.73;;;;;;;7.86;91.09;100982.41;5114005;28;20279;-69
2022/12/25 08:59:46;;;;;;;3.67;3.47;;;;;;;7.85;91.11;100984.22;5114024;28;20213;-69
2022/12/25 09:02:18;;;;;;;4.30;4.17;;;;;;;7.84;90.90;100979.81;5113955;28;20186;-69
2022/12/25 09:04:45;;;;;;;4.23;4.03;;;;;;;7.76;90.93;100965.22;5114326;28;20170;-68
2022/12/25 09:07:12;;;;;;;10.13;4.47;;;;;;;7.67;91.71;100966.56;5113941;28;20236;-68
2022/12/25 09:09:38;;;;;;;4.73;4.00;;;;;;;7.69;91.74;100964.69;5114444;28;20289;-68
2022/12/25 09:12:05;;;;;;;3.90;3.80;;;;;;;7.64;91.25;100950.75;5113809;28;20537;-68
2022/12/25 09:14:31;;;;;;;4.10;3.73;;;;;;;7.64;91.41;100940.94;5114266;28;20205;-68
2022/12/25 09:16:57;;;;;;;4.17;3.80;;;;;;;7.71;91.72;100943.25;5114015;28;20295;-69
2022/12/25 09:19:24;;;;;;;6.17;4.43;;;;;;;7.79;91.38;100946.38;5114024;28;20547;-69
2022/12/25 09:21:50;;;;;;;3.70;3.60;;;;;;;7.83;91.59;100938.09;5113564;28;20193;-69
2022/12/25 09:24:17;;;;;;;4.13;3.90;;;;;;;7.97;91.41;100944.44;5114279;28;20173;-69
2022/12/25 09:26:43;;;;;;;6.60;4.30;;;;;;;8.01;90.87;100922.00;5113671;28;20289;-69
2022/12/25 09:29:09;;;;;;;4.10;3.70;;;;;;;8.03;91.11;100920.94;5114216;28;20188;-69
2022/12/25 09:31:36;;;;;;;5.00;3.70;;;;;;;8.06;90.86;100933.25;5113857;28;20260;-69
2022/12/25 09:34:02;;;;;;;4.20;3.80;;;;;;;8.07;91.43;100940.31;5113623;28;20205;-69
2022/12/25 09:36:29;;;;;;;4.53;4.17;;;;;;;8.14;91.06;100956.81;5113553;28;20212;-69
2022/12/25 09:38:55;;;;;;;4.70;4.40;;;;;;;8.19;91.00;100968.94;5113605;28;20186;-69
2022/12/25 09:41:28;;;;;;;4.63;4.33;;;;;;;8.21;91.28;100982.19;5113614;28;20272;-69
2022/12/25 09:44:04;;;;;;;3.77;3.57;;;;;;;8.21;90.86;100974.16;5113596;28;20170;-69
2022/12/25 09:46:40;;;;;;;5.80;4.60;;;;;;;8.22;91.44;100981.25;5113749;28;20204;-69
2022/12/25 09:49:18;;;;;;;5.73;5.47;;;;;;;8.23;91.39;100985.63;5113793;28;20676;-69
2022/12/25 09:51:51;;;;;;;8.93;7.27;;;;;;;8.25;91.54;100978.41;5113472;28;20219;-69
2022/12/25 09:54:40;;;;;;;8.17;5.40;;;;;;;8.27;91.34;100981.84;5113913;28;20199;-69
2022/12/25 09:57:10;;;;;;;15.43;5.77;;;;;;;8.27;91.51;100995.19;5113659;28;20215;-70
2022/12/25 09:59:37;;;;;;;9.77;4.70;;;;;;;8.28;90.99;100987.09;5113408;28;20181;-70
2022/12/25 10:02:41;;;;;;;10.13;5.43;;;;;;;8.34;91.27;100987.69;5113637;28;20192;-70
2022/12/25 10:05:18;;;;;;;5.73;5.23;;;;;;;8.35;90.92;100984.91;5113597;28;20189;-70
2022/12/25 10:07:53;;;;;;;7.70;5.60;;;;;;;8.39;91.25;100967.78;5116891;28;20192;-70
2022/12/25 10:10:41;;;;;;;6.30;5.80;;;;;;;8.45;91.32;100962.13;5117636;28;20185;-70
2022/12/25 10:13:32;;;;;;;8.40;5.67;;;;;;;8.42;91.47;100959.59;5117340;28;20697;-70
2022/12/25 10:16:22;;;;;;;7.83;7.00;;;;;;;8.47;91.22;100938.84;5117251;28;20296;-70
2022/12/25 10:18:58;;;;;;;8.67;7.10;;;;;;;8.46;91.92;100953.16;5117116;28;20219;-70
2022/12/25 10:21:26;;;;;;;16.77;13.37;;;;;;;8.50;91.84;100944.00;5098676;28;20204;-70
2022/12/25 10:24:02;;;;;;;11.10;10.00;;;;;;;8.47;92.21;100928.16;5117555;28;20177;-70
2022/12/25 10:26:30;;;;;;;8.40;7.40;;;;;;;8.49;92.67;100912.06;5117207;28;20620;-70
2022/12/25 10:29:10;;;;;;;11.07;8.37;;;;;;;8.53;92.92;100900.25;5117206;28;20601;-70
2022/12/25 10:31:37;;;;;;;9.33;8.20;;;;;;;8.57;93.26;100884.91;5117157;28;20182;-70
2022/12/25 10:34:04;;;;;;;8.40;7.60;;;;;;;8.61;92.99;100886.44;5116985;28;20713;-70
2022/12/25 10:36:31;;;;;;;7.80;7.07;;;;;;;8.72;92.97;100881.31;5116654;28;20209;-70
2022/12/25 10:38:58;;;;;;;5.63;5.43;;;;;;;8.79;92.66;100887.09;5098944;28;20272;-70
2022/12/25 10:41:53;;;;;;;6.00;5.47;;;;;;;8.85;92.67;100884.91;5116634;28;20750;-70
2022/12/25 10:44:23;;;;;;;7.00;6.23;;;;;;;8.92;92.94;100882.72;5087370;28;20265;-70
2022/12/25 10:47:00;;;;;;;5.97;5.73;;;;;;;8.97;92.87;100899.31;5116454;28;20201;-70
2022/12/25 10:49:34;;;;;;;5.90;5.67;;;;;;;9.04;92.68;100900.66;5116535;28;20173;-70
2022/12/25 10:52:02;;;;;;;6.33;6.03;;;;;;;9.09;92.55;100903.03;5098840;28;20197;-70
2022/12/25 10:54:34;;;;;;;5.97;5.77;;;;;;;9.11;92.65;100901.13;5116628;28;20674;-70
2022/12/25 10:57:03;;;;;;;7.47;6.43;;;;;;;9.11;92.50;100888.63;5116628;28;20205;-70
2022/12/25 10:59:34;;;;;;;8.33;7.60;;;;;;;9.15;92.72;100882.16;5116860;28;20185;-70
2022/12/25 11:02:27;;;;;;;7.20;6.60;;;;;;;9.18;92.56;100882.91;5116316;28;20188;-70
2022/12/25 11:05:01;;;;;;;8.40;7.90;;;;;;;9.25;92.11;100869.06;5116236;28;20209;-70
2022/12/25 11:07:28;;;;;;;7.93;7.40;;;;;;;9.27;92.56;100863.63;5116469;28;20181;-70
2022/12/25 11:09:59;;;;;;;8.03;7.40;;;;;;;9.25;92.32;100852.19;5116478;28;20335;-70
2022/12/25 11:12:36;;;;;;;6.23;6.03;;;;;;;9.24;92.72;100859.34;5116126;28;20177;-70
2022/12/25 11:15:25;;;;;;;7.07;6.60;;;;;;;9.29;92.38;100864.38;5098132;28;20280;-70
2022/12/25 11:17:52;;;;;;;6.00;5.47;;;;;;;9.32;92.46;100853.50;5101385;28;20266;-70
2022/12/25 11:20:19;;;;;;;6.50;6.13;;;;;;;9.28;92.66;100847.47;5115825;28;20183;-70
2022/12/25 11:22:48;;;;;;;9.93;6.57;;;;;;;9.31;92.53;100835.72;5116506;28;20173;-70
2022/12/25 11:25:25;;;;;;;6.30;5.90;;;;;;;9.35;92.42;100851.47;5115780;28;20265;-70
2022/12/25 11:28:03;;;;;;;6.40;5.90;;;;;;;9.37;92.45;100841.53;5116042;28;20252;-70
2022/12/25 11:30:33;;;;;;;7.13;6.13;;;;;;;9.31;92.55;100823.25;5115833;28;20540;-70
2022/12/25 11:33:10;;;;;;;8.60;6.20;;;;;;;9.33;92.75;100820.44;5115694;28;20256;-70
2022/12/25 11:35:46;;;;;;;5.50;5.40;;;;;;;9.33;92.70;100815.97;5115569;28;20211;-70
2022/12/25 11:38:12;;;;;;;6.03;5.67;;;;;;;9.35;92.44;100811.38;5116266;28;20260;-70
2022/12/25 11:40:51;;;;;;;5.63;5.40;;;;;;;9.37;92.51;100801.44;5115593;28;20213;-70
2022/12/25 11:43:24;;;;;;;6.83;6.53;;;;;;;9.43;92.76;100797.50;5116039;28;20256;-70
2022/12/25 11:45:57;;;;;;;7.20;7.00;;;;;;;9.45;92.59;100797.41;5115691;28;20241;-70
2022/12/25 11:48:35;;;;;;;11.27;6.73;;;;;;;9.43;92.49;100781.47;5115992;28;20252;-70
2022/12/25 11:51:08;;;;;;;7.77;7.10;;;;;;;9.46;92.59;100761.72;5115905;28;20615;-70
2022/12/25 11:53:51;;;;;;;6.40;6.27;;;;;;;9.41;92.48;100751.31;5096990;28;20431;-70
2022/12/25 11:56:22;;;;;;;9.47;8.57;;;;;;;9.40;92.63;100754.94;5115254;28;20231;-70
2022/12/25 11:58:55;;;;;;;8.40;7.70;;;;;;;9.44;92.42;100748.44;5115202;28;20231;-70
2022/12/25 12:01:43;;;;;;;8.50;7.77;;;;;;;9.45;92.10;100731.44;5115223;28;20178;-70
2022/12/25 12:04:24;;;;;;;10.23;9.17;;;;;;;9.45;91.93;100715.38;5115637;28;20534;-70
2022/12/25 12:07:18;;;;;;;11.53;8.40;;;;;;;9.47;92.22;100717.97;5096681;28;20644;-70
2022/12/25 12:10:10;;;;;;;9.93;9.27;;;;;;;9.40;92.23;100727.38;5097245;28;20177;-70
2022/12/25 12:12:57;;;;;;;8.27;7.77;;;;;;;9.43;92.76;100717.31;5115185;28;20256;-70
2022/12/25 12:15:28;;;;;;;11.23;7.60;;;;;;;9.44;92.26;100727.06;5114774;28;20271;-70
2022/12/25 12:18:18;;;;;;;9.20;8.40;;;;;;;9.45;92.20;100720.75;5115084;28;20174;-70
2022/12/25 12:20:57;;;;;;;9.03;8.33;;;;;;;9.45;92.20;100727.91;5114534;28;20201;-70
2022/12/25 12:23:25;;;;;;;9.83;8.90;;;;;;;9.47;92.28;100723.31;5114689;28;20172;-70
2022/12/25 12:25:52;;;;;;;10.53;9.53;;;;;;;9.47;92.20;100712.63;5114581;28;20695;-70
2022/12/25 12:28:30;;;;;;;11.17;8.57;;;;;;;9.49;92.31;100708.88;5114509;28;20185;-70
2022/12/25 12:31:02;;;;;;;10.63;9.20;;;;;;;9.47;92.18;100704.59;5114160;28;20260;-70
2022/12/25 12:33:35;;;;;;;9.60;8.93;;;;;;;9.48;92.25;100709.84;5114715;28;20223;-70
2022/12/25 12:36:03;;;;;;;7.83;7.43;;;;;;;9.48;92.21;100707.19;5114599;28;20229;-70
2022/12/25 12:38:32;;;;;;;11.87;8.57;;;;;;;9.51;92.22;100704.28;5115012;28;20238;-70
2022/12/25 12:41:01;;;;;;;8.40;7.90;;;;;;;9.50;92.16;100704.38;5114734;28;20605;-70
2022/12/25 12:43:39;;;;;;;9.40;8.40;;;;;;;9.50;92.22;100704.38;5114423;28;20181;-70
2022/12/25 12:46:30;;;;;;;8.07;7.80;;;;;;;9.49;92.26;100700.88;5114580;28;20209;-70
2022/12/25 12:49:33;;;;;;;9.50;8.73;;;;;;;9.51;92.39;100712.31;5114864;28;20592;-70
2022/12/25 12:52:34;;;;;;;8.73;8.23;;;;;;;9.51;92.46;100711.47;5072150;28;20208;-70
2022/12/25 12:55:05;;;;;;;13.80;10.03;;;;;;;9.40;92.58;100698.81;5114175;28;20634;-70
2022/12/25 12:57:38;;;;;;;9.17;8.63;;;;;;;9.42;92.70;100690.69;5114642;28;20580;-70
2022/12/25 13:00:08;;;;;;;11.53;8.97;;;;;;;9.45;92.33;100669.94;5114683;28;20505;-70
2022/12/25 13:03:13;;;;;;;9.37;8.63;;;;;;;9.48;92.32;100656.41;5114088;28;20177;-70
2022/12/25 13:05:46;;;;;;;8.63;7.80;;;;;;;9.52;92.39;100662.38;5114493;28;20201;-70
2022/12/25 13:08:44;;;;;;;8.67;8.07;;;;;;;9.49;92.57;100670.59;5114020;28;20173;-70
2022/12/25 13:11:34;;;;;;;7.90;7.30;;;;;;;9.50;92.32;100658.94;5114526;28;20234;-70
2022/12/25 13:14:01;;;;;;;10.03;9.07;;;;;;;9.52;92.33;100659.69;5114076;28;20225;-70
2022/12/25 13:16:43;;;;;;;8.63;8.03;;;;;;;9.52;92.47;100662.38;5113758;28;20232;-70
2022/12/25 13:19:23;;;;;;;9.27;8.33;;;;;;;9.49;92.73;100657.25;5114107;28;20216;-70
2022/12/25 13:22:05;;;;;;;10.23;9.50;;;;;;;9.49;92.56;100660.75;5113794;28;20654;-70
2022/12/25 13:24:34;;;;;;;11.47;9.87;;;;;;;9.43;93.10;100642.47;5114336;28;20200;-70
2022/12/25 13:27:18;;;;;;;10.20;9.50;;;;;;;9.46;92.92;100644.09;5113722;28;20213;-70
2022/12/25 13:29:45;;;;;;;10.87;9.90;;;;;;;9.47;92.93;100643.97;5114142;28;20177;-70